首页
METAR-TAF:

METAR-TAF

机场 :

Olney-Noble Airport

Olney-Noble, 伊利诺伊州, 美国

纬度: 38-43-19N, 经度: 088-10-35W, 海拔: 147米

当前天气观测

该预报发布于21分钟前的09:15 UTC
风速6节,风向
温度 8°C
湿度 93%
气压 1019 hPa
能見度: 6.4公里
阴天层高于900英尺
轻雾

METAR: KOLY 050915Z AUTO 36006KT 4SM BR OVC009 08/07 A3009 RMK AO2 T00770072

时间: 04:36 (09:36 UTC)


TAF: 丢失

超过4000个机场的气象观测和天气预报(METAR&TAF报告)。

可查询的气象台以黄色和红色小点在地图上表示。

将鼠标移到小点上方,可查看气象台名称。

然后点击查看天气观测和预报。

如需切换地图:点击带黑十字的绿色按钮放大地图;点击带横线的绿色按钮缩小地图;或者点击绿色箭头查看邻近地区的地图。


METAR-TAF: